createdAt,value
2019-01-14T00:02:36.584Z,4.36
2019-01-14T00:05:19.927Z,4.67
2019-01-14T00:08:02.667Z,4.62
2019-01-14T00:10:53.167Z,4.50
2019-01-14T00:13:36.697Z,4.45
2019-01-14T00:16:27.209Z,4.44
2019-01-14T00:19:11.532Z,4.36
2019-01-14T00:22:02.039Z,4.50
2019-01-14T00:24:45.357Z,4.39
2019-01-14T00:27:35.865Z,4.42
2019-01-14T00:30:19.416Z,4.35
2019-01-14T00:33:09.957Z,4.42
2019-01-14T00:35:53.328Z,4.56
2019-01-14T00:38:36.621Z,4.46
2019-01-14T00:41:27.184Z,4.43
2019-01-14T00:44:08.679Z,4.48
2019-01-14T00:50:08.505Z,4.49
2019-01-14T00:52:59.990Z,4.43
2019-01-14T00:55:43.434Z,4.41
2019-01-14T00:58:35.570Z,4.23
2019-01-14T01:01:18.971Z,4.14
2019-01-14T01:04:09.480Z,4.10
2019-01-14T01:06:52.565Z,4.03
2019-01-14T01:09:35.949Z,4.04
2019-01-14T01:12:26.526Z,4.05
2019-01-14T01:15:10.834Z,3.99
2019-01-14T01:18:01.340Z,3.98
2019-01-14T01:20:44.220Z,4.13
2019-01-14T01:26:36.806Z,4.14
2019-01-14T01:29:27.290Z,4.06
2019-01-14T01:32:10.592Z,3.93
2019-01-14T01:35:02.092Z,3.72
2019-01-14T01:37:43.646Z,3.83
2019-01-14T01:40:27.089Z,3.73
2019-01-14T01:43:11.278Z,3.79
2019-01-14T01:46:01.806Z,3.46
2019-01-14T01:48:44.809Z,3.13
2019-01-14T01:51:35.318Z,3.19
2019-01-14T01:54:18.546Z,3.14
2019-01-14T01:57:09.088Z,3.09
2019-01-14T01:59:50.677Z,3.10
2019-01-14T02:02:41.224Z,2.87
2019-01-14T02:05:24.465Z,2.89
2019-01-14T02:08:14.970Z,3.02
2019-01-14T02:10:58.445Z,2.90
2019-01-14T02:17:11.540Z,3.03
2019-01-14T02:20:02.153Z,3.01
2019-01-14T02:22:46.885Z,3.15
2019-01-14T02:25:37.391Z,3.07
2019-01-14T02:28:20.677Z,3.08
2019-01-14T02:31:11.212Z,3.32
2019-01-14T02:33:54.664Z,3.14
2019-01-14T02:36:57.332Z,3.40
2019-01-14T02:39:47.874Z,3.17
2019-01-14T02:42:30.884Z,3.39
2019-01-14T02:45:21.453Z,3.14
2019-01-14T02:48:04.817Z,3.37
2019-01-14T02:50:55.312Z,3.44
2019-01-14T02:53:38.096Z,3.26
2019-01-14T02:56:28.603Z,3.40
2019-01-14T02:59:12.034Z,3.50
2019-01-14T03:02:02.546Z,3.27
2019-01-14T03:04:44.212Z,3.20
2019-01-14T03:07:34.822Z,3.18
2019-01-14T03:10:17.802Z,3.36
2019-01-14T03:12:59.291Z,3.41
2019-01-14T03:15:49.792Z,3.23
2019-01-14T03:18:32.742Z,3.43
2019-01-14T03:21:23.258Z,3.35
2019-01-14T03:24:06.331Z,3.27
2019-01-14T03:26:56.846Z,3.22
2019-01-14T03:29:40.125Z,3.34
2019-01-14T03:32:30.645Z,3.37
2019-01-14T03:35:14.276Z,3.40
2019-01-14T03:38:04.809Z,3.24
2019-01-14T03:40:48.107Z,3.36
2019-01-14T03:43:30.978Z,3.22
2019-01-14T03:46:21.491Z,3.30
2019-01-14T03:49:02.964Z,3.36
2019-01-14T03:51:53.466Z,3.43
2019-01-14T03:54:36.857Z,3.37
2019-01-14T03:57:27.369Z,3.25
2019-01-14T04:00:12.408Z,3.32
2019-01-14T04:03:02.911Z,3.06
2019-01-14T04:05:45.894Z,3.11
2019-01-14T04:08:36.408Z,3.23
2019-01-14T04:11:17.992Z,3.19
2019-01-14T04:14:01.436Z,3.15
2019-01-14T04:16:51.946Z,3.24
2019-01-14T04:19:33.517Z,3.26
2019-01-14T04:22:24.019Z,3.27
2019-01-14T04:25:07.489Z,3.30
2019-01-14T04:27:58.022Z,3.34
2019-01-14T04:30:41.421Z,3.19
2019-01-14T04:33:31.901Z,3.21
2019-01-14T04:36:14.901Z,3.12
2019-01-14T04:42:22.402Z,3.33
2019-01-14T04:45:05.769Z,3.33
2019-01-14T04:47:56.296Z,3.23
2019-01-14T04:50:39.328Z,3.24
2019-01-14T04:53:29.847Z,3.23
2019-01-14T04:56:12.899Z,3.22
2019-01-14T04:59:03.436Z,3.34
2019-01-14T05:01:46.933Z,3.18
2019-01-14T05:04:37.439Z,3.31
2019-01-14T05:07:19.013Z,3.32
2019-01-14T05:10:10.222Z,3.26
2019-01-14T05:12:53.610Z,3.30
2019-01-14T05:15:37.231Z,3.13
2019-01-14T05:18:27.685Z,3.28
2019-01-14T05:21:10.970Z,3.40
2019-01-14T05:24:01.475Z,3.44
2019-01-14T05:26:44.851Z,3.30
2019-01-14T05:29:35.352Z,3.24
2019-01-14T05:32:18.525Z,3.23
2019-01-14T05:38:30.371Z,3.15
2019-01-14T05:41:13.079Z,3.15
2019-01-14T05:43:56.454Z,3.17
2019-01-14T05:46:39.254Z,3.13
2019-01-14T05:49:29.759Z,3.03
2019-01-14T05:52:12.965Z,3.06
2019-01-14T05:55:03.485Z,3.05
2019-01-14T05:57:46.913Z,3.02
2019-01-14T06:00:56.283Z,3.03
2019-01-14T06:03:39.491Z,3.11
2019-01-14T06:06:30.051Z,3.09
2019-01-14T06:09:13.212Z,3.16
2019-01-14T06:11:56.419Z,3.05
2019-01-14T06:14:46.935Z,2.96
2019-01-14T06:17:30.303Z,2.94
2019-01-14T06:23:42.050Z,2.96
2019-01-14T06:26:32.573Z,2.95
2019-01-14T06:29:15.935Z,2.91
2019-01-14T06:32:06.463Z,2.98
2019-01-14T06:34:51.247Z,2.97
2019-01-14T06:37:41.774Z,3.11
2019-01-14T06:40:25.262Z,3.06
2019-01-14T06:43:15.817Z,3.05
2019-01-14T06:45:59.109Z,3.07
2019-01-14T06:48:41.921Z,3.26
2019-01-14T06:51:32.442Z,3.24
2019-01-14T06:54:15.777Z,3.18
2019-01-14T06:57:06.274Z,3.18
2019-01-14T06:59:49.800Z,3.18
2019-01-14T07:02:40.346Z,3.18
2019-01-14T07:05:21.989Z,3.29
2019-01-14T07:08:04.946Z,3.26
2019-01-14T07:14:04.448Z,3.24
2019-01-14T07:16:54.946Z,3.56
2019-01-14T07:19:36.552Z,3.41
2019-01-14T07:22:27.064Z,3.35
2019-01-14T07:25:08.548Z,3.33
2019-01-14T07:27:59.054Z,3.23
2019-01-14T07:30:42.352Z,3.08
2019-01-14T07:36:26.986Z,3.06
2019-01-14T07:39:09.520Z,3.02
2019-01-14T07:42:00.038Z,3.11
2019-01-14T07:44:43.072Z,3.09
2019-01-14T07:47:33.586Z,3.04
2019-01-14T07:50:16.870Z,3.06
2019-01-14T07:53:07.409Z,3.24
2019-01-14T07:55:51.033Z,3.12
2019-01-14T08:02:03.905Z,3.18
2019-01-14T08:04:54.517Z,3.25
2019-01-14T08:07:37.677Z,3.24
2019-01-14T08:10:28.210Z,3.19
2019-01-14T08:13:11.644Z,3.17
2019-01-14T08:16:02.192Z,3.19
2019-01-14T08:18:45.250Z,3.39
2019-01-14T08:21:28.608Z,3.28
2019-01-14T08:24:19.134Z,3.17
2019-01-14T08:27:03.579Z,3.27
2019-01-14T08:29:54.188Z,3.19
2019-01-14T08:32:37.714Z,3.28
2019-01-14T08:35:19.303Z,3.24
2019-01-14T08:38:09.834Z,3.38
2019-01-14T08:40:53.505Z,3.19
2019-01-14T08:46:51.149Z,3.35
2019-01-14T08:49:41.734Z,3.53
2019-01-14T08:52:25.007Z,3.46
2019-01-14T08:55:15.526Z,3.47
2019-01-14T08:57:58.305Z,3.56
2019-01-14T09:03:50.456Z,3.24
2019-01-14T09:06:33.661Z,3.27
2019-01-14T09:09:24.452Z,3.17
2019-01-14T09:12:07.859Z,3.23
2019-01-14T09:14:58.385Z,3.30
2019-01-14T09:17:41.645Z,3.33
2019-01-14T09:20:32.261Z,3.19
2019-01-14T09:23:15.132Z,3.37
2019-01-14T09:26:05.640Z,3.17
2019-01-14T09:28:47.138Z,3.36
2019-01-14T09:31:37.800Z,3.34
2019-01-14T09:34:19.559Z,3.29
2019-01-14T09:37:10.114Z,3.25
2019-01-14T09:39:52.840Z,3.33
2019-01-14T09:42:43.413Z,3.41
2019-01-14T09:45:26.535Z,3.43
2019-01-14T09:48:17.910Z,3.48
2019-01-14T09:51:06.456Z,3.32
2019-01-14T09:53:57.013Z,3.50
2019-01-14T09:56:40.082Z,3.43
2019-01-14T09:59:30.610Z,3.46
2019-01-14T10:02:13.853Z,3.42
2019-01-14T10:07:55.931Z,3.40
2019-01-14T10:10:38.727Z,3.37
2019-01-14T10:13:22.408Z,3.40
2019-01-14T10:16:12.995Z,3.43
2019-01-14T10:18:56.223Z,3.65
2019-01-14T10:21:46.828Z,3.31
2019-01-14T10:24:30.294Z,3.37
2019-01-14T10:27:20.870Z,3.42
2019-01-14T10:30:02.527Z,3.26
2019-01-14T10:32:53.135Z,3.13
2019-01-14T10:35:36.582Z,3.18
2019-01-14T10:38:27.198Z,3.24
2019-01-14T10:41:10.391Z,3.30
2019-01-14T10:44:00.961Z,3.49
2019-01-14T10:46:44.131Z,3.36
2019-01-14T10:49:34.763Z,3.16
2019-01-14T10:52:18.195Z,3.15
2019-01-14T10:55:04.265Z,3.33
2019-01-14T10:57:54.842Z,3.03
2019-01-14T11:00:36.313Z,3.13
2019-01-14T11:03:26.931Z,2.95
2019-01-14T11:06:09.933Z,2.85
2019-01-14T11:09:05.752Z,3.05
2019-01-14T11:11:51.322Z,3.14
2019-01-14T11:14:41.866Z,3.00
2019-01-14T11:17:25.062Z,3.13
2019-01-14T11:20:39.128Z,3.09
2019-01-14T11:23:21.953Z,3.03
2019-01-14T11:26:03.445Z,2.97
2019-01-14T11:28:53.958Z,3.11
2019-01-14T11:31:37.381Z,2.95
2019-01-14T11:34:28.123Z,3.00
2019-01-14T11:37:11.600Z,3.20
2019-01-14T11:40:02.150Z,3.23
2019-01-14T11:42:45.847Z,3.23
2019-01-14T11:45:27.459Z,3.28
2019-01-14T11:48:18.953Z,3.39
2019-01-14T11:51:02.481Z,3.39
2019-01-14T11:53:53.165Z,3.38
2019-01-14T11:56:36.887Z,3.48
2019-01-14T11:59:27.362Z,3.47
2019-01-14T12:02:10.771Z,3.46
2019-01-14T12:05:01.301Z,3.75
2019-01-14T12:07:44.878Z,3.47
2019-01-14T12:10:35.468Z,3.53
2019-01-14T12:13:17.147Z,3.69
2019-01-14T12:16:07.798Z,3.69
2019-01-14T12:18:51.372Z,3.48
2019-01-14T12:24:43.508Z,3.35
2019-01-14T12:27:26.731Z,3.31
2019-01-14T12:30:55.543Z,3.55
2019-01-14T12:33:39.174Z,3.30
2019-01-14T12:36:29.825Z,3.29
2019-01-14T12:39:19.289Z,3.19
2019-01-14T12:41:58.046Z,3.23
2019-01-14T12:44:48.566Z,3.25
2019-01-14T12:47:31.868Z,3.21
2019-01-14T12:50:22.411Z,3.15
2019-01-14T12:53:05.924Z,3.08
2019-01-14T12:58:58.770Z,3.06
2019-01-14T13:01:49.290Z,2.85
2019-01-14T13:04:30.854Z,2.87
2019-01-14T13:07:21.459Z,2.92
2019-01-14T13:10:05.456Z,2.84
2019-01-14T13:12:48.191Z,2.85
2019-01-14T13:15:38.732Z,2.97
2019-01-14T13:18:21.560Z,3.15
2019-01-14T13:21:12.065Z,3.09
2019-01-14T13:23:55.483Z,3.06
2019-01-14T13:26:46.008Z,3.14
2019-01-14T13:29:27.526Z,3.26
2019-01-14T13:32:18.040Z,3.30
2019-01-14T13:35:01.345Z,3.08
2019-01-14T13:37:52.069Z,3.14
2019-01-14T13:40:35.605Z,3.15
2019-01-14T13:43:18.475Z,3.30
2019-01-14T13:46:09.107Z,3.18
2019-01-14T13:48:59.641Z,3.30
2019-01-14T13:51:41.099Z,3.31
2019-01-14T13:54:31.652Z,3.08
2019-01-14T13:57:14.414Z,3.09
2019-01-14T14:00:25.578Z,3.08
2019-01-14T14:03:09.128Z,3.15
2019-01-14T14:05:59.698Z,3.06
2019-01-14T14:09:01.963Z,3.11
2019-01-14T14:11:53.528Z,3.16
2019-01-14T14:14:37.071Z,3.07
2019-01-14T14:17:28.740Z,3.05
2019-01-14T14:20:12.996Z,3.02
2019-01-14T14:23:03.490Z,3.17
2019-01-14T14:25:48.133Z,2.33
2019-01-14T14:28:38.698Z,1.77
2019-01-14T14:31:21.928Z,1.83
2019-01-14T14:34:12.458Z,1.62
2019-01-14T14:37:03.106Z,1.67
2019-01-14T14:39:48.517Z,1.68
2019-01-14T14:42:36.911Z,1.79
2019-01-14T14:45:20.484Z,1.75
2019-01-14T14:48:02.203Z,1.90
2019-01-14T14:51:11.596Z,1.93
2019-01-14T14:53:54.362Z,1.94
2019-01-14T14:56:44.981Z,1.96
2019-01-14T14:59:28.344Z,1.81
2019-01-14T15:02:18.913Z,1.97
2019-01-14T15:05:02.065Z,1.81
2019-01-14T15:07:53.765Z,1.64
2019-01-14T15:10:37.265Z,1.76
2019-01-14T15:13:27.846Z,1.61
2019-01-14T15:16:10.952Z,1.69
2019-01-14T15:19:01.657Z,1.52
2019-01-14T15:21:44.658Z,1.68
2019-01-14T15:28:02.441Z,1.71
2019-01-14T15:30:46.133Z,1.84
2019-01-14T15:33:36.754Z,1.62
2019-01-14T15:36:19.719Z,1.78
2019-01-14T15:42:33.693Z,1.86
2019-01-14T15:48:53.747Z,1.80
2019-01-14T15:51:37.379Z,1.86
2019-01-14T15:54:28.058Z,1.96
2019-01-14T15:57:11.111Z,1.85
2019-01-14T16:00:05.550Z,1.77
2019-01-14T16:02:48.838Z,1.64
2019-01-14T16:05:39.444Z,1.62
2019-01-14T16:08:22.873Z,1.71
2019-01-14T16:11:13.653Z,1.77
2019-01-14T16:13:56.581Z,1.68
2019-01-14T16:16:47.141Z,1.72
2019-01-14T16:19:30.495Z,1.79
2019-01-14T16:22:21.021Z,1.82
2019-01-14T16:25:04.728Z,1.61
2019-01-14T16:27:55.290Z,1.67
2019-01-14T16:30:38.206Z,1.87
2019-01-14T16:33:28.758Z,1.90
2019-01-14T16:36:12.072Z,1.97
2019-01-14T16:38:55.027Z,1.76
2019-01-14T16:48:20.910Z,1.81
2019-01-14T16:51:03.711Z,1.61
2019-01-14T16:53:47.024Z,1.73
2019-01-14T16:56:39.723Z,1.69
2019-01-14T16:59:23.062Z,1.74
2019-01-14T17:02:13.645Z,1.53
2019-01-14T17:04:56.760Z,1.74
2019-01-14T17:07:47.312Z,1.52
2019-01-14T17:10:30.668Z,1.39
2019-01-14T17:13:21.213Z,1.58
2019-01-14T17:16:04.264Z,1.55
2019-01-14T17:18:54.815Z,1.72
2019-01-14T17:21:38.417Z,1.61
2019-01-14T17:24:28.982Z,1.48
2019-01-14T17:27:12.281Z,1.48
2019-01-14T17:30:02.834Z,1.55
2019-01-14T17:32:46.504Z,1.63
2019-01-14T17:35:37.023Z,1.53
2019-01-14T17:38:20.229Z,1.57
2019-01-14T17:41:10.770Z,1.49
2019-01-14T17:43:53.819Z,1.55
2019-01-14T17:46:44.350Z,1.26
2019-01-14T17:49:27.395Z,1.56
2019-01-14T17:52:10.289Z,1.39
2019-01-14T17:55:00.864Z,1.49
2019-01-14T17:57:44.098Z,1.36
2019-01-14T18:00:34.777Z,1.57
2019-01-14T18:03:17.724Z,1.50
2019-01-14T18:06:08.293Z,1.54
2019-01-14T18:08:51.768Z,1.49
2019-01-14T18:11:34.593Z,1.37
2019-01-14T18:14:25.161Z,1.39
2019-01-14T18:17:10.325Z,1.30
2019-01-14T18:20:00.900Z,1.40
2019-01-14T18:22:47.077Z,1.26
2019-01-14T18:25:37.538Z,1.24
2019-01-14T18:28:20.357Z,1.26
2019-01-14T18:31:10.873Z,1.44
2019-01-14T18:33:52.428Z,1.24
2019-01-14T18:36:42.947Z,1.37
2019-01-14T18:39:26.344Z,1.47
2019-01-14T18:42:16.912Z,1.46
2019-01-14T18:45:00.275Z,1.46
2019-01-14T18:47:50.925Z,1.44
2019-01-14T18:50:33.847Z,1.40
2019-01-14T18:53:17.259Z,1.40
2019-01-14T18:56:07.807Z,1.47
2019-01-14T18:58:50.707Z,1.49
2019-01-14T19:01:41.253Z,1.52
2019-01-14T19:04:24.847Z,1.56
2019-01-14T19:07:15.375Z,1.42
2019-01-14T19:09:58.833Z,1.40
2019-01-14T19:12:41.943Z,1.42
2019-01-14T19:15:32.454Z,1.26
2019-01-14T19:18:15.647Z,1.38
2019-01-14T19:21:06.152Z,1.48
2019-01-14T19:23:49.387Z,1.31
2019-01-14T19:26:39.888Z,1.54
2019-01-14T19:29:23.103Z,1.43
2019-01-14T19:32:13.647Z,1.50
2019-01-14T19:34:56.548Z,1.44
2019-01-14T19:37:47.523Z,1.45
2019-01-14T19:40:30.825Z,1.32
2019-01-14T19:43:21.417Z,1.33
2019-01-14T19:46:02.994Z,1.32
2019-01-14T19:48:53.494Z,1.32
2019-01-14T19:51:35.148Z,1.24
2019-01-14T19:54:25.676Z,1.24
2019-01-14T19:57:08.452Z,1.24
2019-01-14T19:59:59.035Z,1.24
2019-01-14T20:02:41.870Z,1.34
2019-01-14T20:05:32.430Z,1.23
2019-01-14T20:08:16.798Z,1.33
2019-01-14T20:11:09.355Z,1.35
2019-01-14T20:14:11.177Z,1.29
2019-01-14T20:17:01.701Z,1.38
2019-01-14T20:19:44.448Z,1.40
2019-01-14T20:22:34.909Z,1.44
2019-01-14T20:25:18.320Z,1.38
2019-01-14T20:28:09.054Z,1.31
2019-01-14T20:30:51.744Z,1.35
2019-01-14T20:33:42.253Z,1.30
2019-01-14T20:36:24.981Z,1.40
2019-01-14T20:39:34.671Z,1.37
2019-01-14T20:42:16.332Z,1.31
2019-01-14T20:45:07.564Z,1.26
2019-01-14T20:47:50.951Z,1.22
2019-01-14T20:50:41.453Z,1.10
2019-01-14T20:53:24.936Z,1.03
2019-01-14T20:56:15.446Z,1.18
2019-01-14T20:58:58.929Z,1.06
2019-01-14T21:01:49.450Z,1.10
2019-01-14T21:04:32.561Z,1.00
2019-01-14T21:07:22.974Z,1.13
2019-01-14T21:10:06.416Z,1.13
2019-01-14T21:12:56.825Z,1.15
2019-01-14T21:15:40.259Z,1.38
2019-01-14T21:18:30.730Z,1.38
2019-01-14T21:21:14.161Z,0.99
2019-01-14T21:24:04.647Z,1.21
2019-01-14T21:26:47.802Z,1.25
2019-01-14T21:29:38.274Z,1.13
2019-01-14T21:32:21.397Z,1.14
2019-01-14T21:35:11.880Z,1.21
2019-01-14T21:37:56.147Z,1.10
2019-01-14T21:40:46.550Z,1.19
2019-01-14T21:43:29.805Z,1.26
2019-01-14T21:46:20.280Z,1.15
2019-01-14T21:49:03.407Z,1.12
2019-01-14T21:51:53.843Z,1.14
2019-01-14T21:54:44.343Z,1.08
2019-01-14T21:57:27.946Z,1.19
2019-01-14T22:00:20.343Z,1.11
2019-01-14T22:03:02.942Z,1.15
2019-01-14T22:05:53.482Z,1.24
2019-01-14T22:08:36.783Z,1.36
2019-01-14T22:11:27.298Z,1.29
2019-01-14T22:14:10.375Z,1.12
2019-01-14T22:16:53.722Z,1.20
2019-01-14T22:19:45.428Z,1.17
2019-01-14T22:22:34.044Z,1.20
2019-01-14T22:25:24.906Z,1.23
2019-01-14T22:28:08.407Z,1.21
2019-01-14T22:30:58.889Z,1.16
2019-01-14T22:33:40.481Z,1.12
2019-01-14T22:36:30.902Z,0.96
2019-01-14T22:39:14.276Z,1.15
2019-01-14T22:42:24.032Z,0.99
2019-01-14T22:45:06.252Z,1.06
2019-01-14T22:47:56.775Z,1.09
2019-01-14T22:50:40.291Z,1.02
2019-01-14T22:53:23.654Z,0.99
2019-01-14T22:56:14.182Z,1.06
2019-01-14T22:58:57.402Z,0.90
2019-01-14T23:01:50.583Z,0.99
2019-01-14T23:04:34.720Z,1.09
2019-01-14T23:07:27.306Z,0.83
2019-01-14T23:10:10.417Z,0.82
2019-01-14T23:13:01.140Z,0.79
2019-01-14T23:15:42.693Z,0.83
2019-01-14T23:18:25.658Z,0.77
2019-01-14T23:21:16.194Z,0.89
2019-01-14T23:23:59.056Z,0.99
2019-01-14T23:26:49.578Z,1.21
2019-01-14T23:29:34.491Z,1.01
2019-01-14T23:32:25.962Z,0.94
2019-01-14T23:35:09.485Z,0.97
2019-01-14T23:37:59.921Z,1.04
2019-01-14T23:40:43.018Z,0.78
2019-01-14T23:43:33.528Z,0.69
2019-01-14T23:46:16.796Z,0.81
2019-01-14T23:49:07.287Z,0.73
2019-01-14T23:51:50.802Z,0.85
2019-01-14T23:54:37.014Z,0.86
2019-01-14T23:57:26.254Z,0.63
